createdAt,value
2023-12-03T00:01:24.817Z,89.92
2023-12-03T00:04:27.499Z,89.74
2023-12-03T00:07:30.630Z,89.73
2023-12-03T00:10:34.873Z,89.73
2023-12-03T00:13:37.575Z,89.58
2023-12-03T00:16:40.276Z,88.98
2023-12-03T00:19:43.036Z,89.14
2023-12-03T00:22:47.211Z,89.49
2023-12-03T00:25:51.172Z,88.99
2023-12-03T00:28:53.769Z,89.23
2023-12-03T00:31:56.360Z,89.26
2023-12-03T00:34:59.011Z,88.83
2023-12-03T00:38:01.659Z,88.98
2023-12-03T00:41:06.034Z,88.80
2023-12-03T00:44:08.660Z,89.18
2023-12-03T00:47:11.265Z,89.13
2023-12-03T00:50:14.055Z,89.49
2023-12-03T00:53:16.685Z,88.99
2023-12-03T00:56:20.715Z,89.49
2023-12-03T00:59:23.379Z,88.53
2023-12-03T01:02:25.999Z,88.43
2023-12-03T01:05:28.673Z,88.70
2023-12-03T01:08:31.361Z,89.17
2023-12-03T01:11:36.695Z,89.35
2023-12-03T01:14:39.582Z,89.02
2023-12-03T01:17:42.301Z,89.05
2023-12-03T01:20:45.068Z,89.30
2023-12-03T01:23:47.705Z,88.85
2023-12-03T01:26:51.673Z,89.01
2023-12-03T01:29:54.349Z,88.91
2023-12-03T01:32:57.013Z,88.88
2023-12-03T01:35:59.717Z,89.21
2023-12-03T01:39:02.496Z,88.93
2023-12-03T01:42:07.029Z,89.03
2023-12-03T01:45:10.177Z,89.55
2023-12-03T01:48:12.966Z,89.38
2023-12-03T01:51:15.906Z,89.25
2023-12-03T01:54:18.686Z,89.30
2023-12-03T01:57:22.781Z,90.15
2023-12-03T02:00:26.324Z,89.46
2023-12-03T02:03:29.073Z,89.87
2023-12-03T02:06:31.804Z,90.30
2023-12-03T02:09:34.472Z,89.29
2023-12-03T02:12:38.517Z,89.22
2023-12-03T02:15:41.174Z,89.58
2023-12-03T02:18:43.990Z,89.20
2023-12-03T02:21:46.719Z,89.46
2023-12-03T02:24:50.794Z,89.36
2023-12-03T02:27:53.490Z,89.36
2023-12-03T02:30:56.221Z,89.38
2023-12-03T02:34:01.017Z,89.60
2023-12-03T02:37:03.752Z,89.27
2023-12-03T02:40:09.530Z,89.44
2023-12-03T02:43:12.389Z,89.57
2023-12-03T02:46:15.097Z,89.33
2023-12-03T02:49:17.866Z,89.11
2023-12-03T02:52:20.626Z,89.41
2023-12-03T02:55:24.644Z,89.23
2023-12-03T02:58:27.293Z,89.11
2023-12-03T03:01:29.951Z,89.41
2023-12-03T03:04:32.688Z,89.27
2023-12-03T03:07:35.326Z,89.28
2023-12-03T03:10:39.291Z,89.28
2023-12-03T03:13:41.875Z,89.21
2023-12-03T03:16:44.465Z,89.22
2023-12-03T03:19:47.128Z,89.17
2023-12-03T03:22:49.782Z,89.03
2023-12-03T03:25:53.851Z,88.96
2023-12-03T03:28:56.468Z,89.39
2023-12-03T03:31:59.095Z,89.30
2023-12-03T03:35:01.786Z,89.38
2023-12-03T03:38:04.437Z,89.19
2023-12-03T03:41:09.105Z,89.25
2023-12-03T03:44:11.748Z,89.61
2023-12-03T03:47:14.629Z,88.93
2023-12-03T03:50:17.352Z,88.97
2023-12-03T03:53:19.981Z,89.32
2023-12-03T03:56:24.137Z,89.24
2023-12-03T03:59:26.967Z,89.13
2023-12-03T04:02:29.647Z,89.56
2023-12-03T04:05:32.350Z,89.34
2023-12-03T04:08:35.129Z,89.47
2023-12-03T04:11:42.497Z,89.61
2023-12-03T04:14:45.388Z,89.52
2023-12-03T04:17:48.084Z,89.61
2023-12-03T04:20:50.816Z,89.42
2023-12-03T04:23:53.415Z,89.64
2023-12-03T04:26:57.382Z,89.64
2023-12-03T04:29:59.982Z,89.61
2023-12-03T04:33:02.707Z,89.62
2023-12-03T04:36:09.323Z,89.42
2023-12-03T04:39:12.040Z,89.80
2023-12-03T04:42:16.117Z,89.35
2023-12-03T04:45:18.894Z,89.75
2023-12-03T04:48:21.695Z,89.49
2023-12-03T04:51:24.359Z,89.03
2023-12-03T04:54:27.082Z,89.17
2023-12-03T04:57:31.086Z,89.15
2023-12-03T05:00:33.926Z,89.16
2023-12-03T05:03:36.661Z,89.25
2023-12-03T05:06:39.422Z,89.17
2023-12-03T05:09:42.198Z,89.29
2023-12-03T05:12:46.218Z,89.57
2023-12-03T05:15:48.938Z,89.24
2023-12-03T05:18:51.780Z,89.19
2023-12-03T05:21:54.463Z,89.21
2023-12-03T05:24:57.360Z,89.54
2023-12-03T05:28:01.323Z,89.97
2023-12-03T05:31:05.768Z,89.64
2023-12-03T05:34:08.458Z,89.61
2023-12-03T05:37:11.471Z,89.48
2023-12-03T05:40:14.134Z,89.96
2023-12-03T05:43:18.241Z,89.89
2023-12-03T05:46:20.946Z,90.16
2023-12-03T05:49:23.785Z,89.72
2023-12-03T05:52:26.483Z,90.27
2023-12-03T05:55:29.068Z,89.72
2023-12-03T05:58:33.048Z,89.74
2023-12-03T06:01:35.743Z,90.05
2023-12-03T06:04:38.448Z,89.85
2023-12-03T06:07:41.107Z,90.78
2023-12-03T06:10:45.511Z,89.75
2023-12-03T06:13:51.038Z,89.99
2023-12-03T06:16:53.699Z,90.02
2023-12-03T06:19:56.376Z,90.35
2023-12-03T06:22:59.277Z,90.23
2023-12-03T06:26:02.495Z,90.38
2023-12-03T06:29:06.523Z,90.53
2023-12-03T06:32:09.333Z,90.21
2023-12-03T06:35:15.333Z,90.46
2023-12-03T06:38:17.957Z,91.13
2023-12-03T06:41:20.608Z,90.75
2023-12-03T06:44:34.740Z,91.13
2023-12-03T06:47:43.893Z,91.19
2023-12-03T06:50:46.563Z,90.77
2023-12-03T06:53:49.257Z,91.10
2023-12-03T06:56:51.914Z,91.35
2023-12-03T06:59:55.924Z,91.44
2023-12-03T07:02:59.532Z,90.92
2023-12-03T07:06:02.208Z,91.41
2023-12-03T07:09:36.018Z,91.44
2023-12-03T07:12:27.982Z,91.54
2023-12-03T07:15:32.069Z,91.81
2023-12-03T07:18:35.353Z,91.15
2023-12-03T07:21:38.010Z,90.84
2023-12-03T07:24:40.743Z,90.91
2023-12-03T07:27:43.410Z,91.11
2023-12-03T07:30:47.467Z,91.74
2023-12-03T07:33:50.299Z,91.41
2023-12-03T07:36:53.023Z,91.38
2023-12-03T07:39:56.002Z,91.41
2023-12-03T07:42:58.756Z,91.35
2023-12-03T07:46:03.205Z,91.65
2023-12-03T07:49:06.142Z,91.35
2023-12-03T07:52:08.869Z,92.09
2023-12-03T07:55:11.554Z,91.57
2023-12-03T07:58:14.194Z,91.97
2023-12-03T08:01:18.402Z,91.67
2023-12-03T08:04:21.129Z,91.49
2023-12-03T08:07:23.893Z,91.25
2023-12-03T08:10:27.457Z,92.15
2023-12-03T08:13:30.206Z,92.08
2023-12-03T08:16:34.196Z,91.69
2023-12-03T08:19:37.005Z,91.91
2023-12-03T08:22:39.774Z,91.58
2023-12-03T08:25:42.463Z,92.03
2023-12-03T08:28:45.558Z,92.03
2023-12-03T08:31:50.905Z,91.50
2023-12-03T08:34:53.555Z,91.89
2023-12-03T08:37:56.198Z,91.81
2023-12-03T08:40:58.852Z,91.58
2023-12-03T08:44:01.513Z,91.01
2023-12-03T08:47:05.859Z,91.67
2023-12-03T08:50:09.323Z,91.35
2023-12-03T08:53:12.059Z,91.83
2023-12-03T08:56:14.840Z,91.49
2023-12-03T08:59:17.583Z,91.08
2023-12-03T09:02:21.660Z,91.11
2023-12-03T09:05:24.367Z,90.93
2023-12-03T09:08:27.039Z,90.93
2023-12-03T09:11:29.751Z,91.07
2023-12-03T09:14:34.073Z,90.62
2023-12-03T09:17:38.763Z,89.95
2023-12-03T09:20:43.336Z,88.92
2023-12-03T09:23:46.224Z,89.01
2023-12-03T09:26:48.910Z,88.37
2023-12-03T09:29:51.712Z,87.93
2023-12-03T09:32:55.859Z,88.50
2023-12-03T09:35:58.635Z,87.49
2023-12-03T09:39:01.338Z,87.83
2023-12-03T09:42:04.350Z,87.21
2023-12-03T09:45:10.597Z,86.82
2023-12-03T09:48:14.759Z,86.80
2023-12-03T09:51:17.464Z,87.00
2023-12-03T09:54:20.680Z,86.71
2023-12-03T09:57:25.614Z,86.43
2023-12-03T10:00:30.203Z,86.06
2023-12-03T10:03:34.919Z,85.73
2023-12-03T10:06:42.022Z,85.71
2023-12-03T10:09:44.813Z,85.43
2023-12-03T10:12:47.714Z,85.20
2023-12-03T10:15:50.440Z,84.59
2023-12-03T10:18:54.592Z,84.70
2023-12-03T10:21:58.200Z,84.71
2023-12-03T10:25:01.188Z,84.32
2023-12-03T10:28:04.504Z,84.16
2023-12-03T10:31:08.039Z,84.66
2023-12-03T10:34:12.100Z,84.30
2023-12-03T10:37:15.711Z,83.72
2023-12-03T10:40:19.328Z,83.46
2023-12-03T10:43:24.712Z,83.78
2023-12-03T10:46:28.449Z,83.71
2023-12-03T10:49:32.818Z,83.07
2023-12-03T10:52:36.496Z,83.48
2023-12-03T10:55:39.109Z,82.74
2023-12-03T10:58:42.763Z,82.67
2023-12-03T11:01:49.160Z,83.05
2023-12-03T11:04:56.264Z,83.24
2023-12-03T11:07:59.229Z,82.56
2023-12-03T11:11:01.922Z,82.45
2023-12-03T11:14:04.603Z,82.59
2023-12-03T11:17:10.930Z,82.24
2023-12-03T11:20:16.796Z,82.62
2023-12-03T11:23:27.410Z,82.38
2023-12-03T11:26:30.167Z,82.61
2023-12-03T11:29:50.434Z,82.20
2023-12-03T11:32:55.308Z,82.07
2023-12-03T11:36:00.288Z,82.14
2023-12-03T11:39:03.232Z,82.03
2023-12-03T11:42:07.303Z,82.00
2023-12-03T11:45:24.220Z,81.75
2023-12-03T11:48:28.366Z,82.18
2023-12-03T11:51:33.457Z,81.96
2023-12-03T11:54:39.330Z,81.22
2023-12-03T11:57:42.419Z,80.98
2023-12-03T12:00:46.993Z,80.98
2023-12-03T12:03:49.754Z,80.37
2023-12-03T12:06:54.976Z,79.69
2023-12-03T12:09:57.744Z,79.84
2023-12-03T12:13:00.552Z,79.04
2023-12-03T12:16:03.563Z,79.11
2023-12-03T12:19:06.501Z,78.73
2023-12-03T12:22:10.633Z,78.85
2023-12-03T12:25:13.358Z,78.61
2023-12-03T12:28:16.029Z,78.79
2023-12-03T12:31:20.963Z,78.89
2023-12-03T12:34:25.292Z,78.44
2023-12-03T12:37:40.150Z,78.41
2023-12-03T12:40:53.593Z,78.57
2023-12-03T12:43:56.842Z,78.34
2023-12-03T12:47:00.249Z,78.41
2023-12-03T12:50:03.078Z,78.49
2023-12-03T12:53:07.932Z,77.65
2023-12-03T12:56:11.662Z,77.83
2023-12-03T12:59:15.447Z,77.93
2023-12-03T13:02:21.704Z,78.16
2023-12-03T13:05:26.406Z,77.97
2023-12-03T13:08:30.797Z,77.65
2023-12-03T13:11:33.572Z,77.86
2023-12-03T13:14:36.804Z,77.61
2023-12-03T13:17:46.854Z,77.42
2023-12-03T13:20:49.734Z,77.63
2023-12-03T13:23:54.089Z,77.28
2023-12-03T13:26:56.774Z,77.68
2023-12-03T13:29:59.368Z,77.22
2023-12-03T13:33:02.131Z,77.64
2023-12-03T13:36:05.711Z,77.37
2023-12-03T13:39:10.216Z,77.29
2023-12-03T13:42:12.816Z,77.20
2023-12-03T13:45:15.452Z,77.70
2023-12-03T13:48:18.127Z,77.68
2023-12-03T13:51:20.831Z,77.76
2023-12-03T13:54:24.832Z,77.71
2023-12-03T13:57:27.862Z,77.74
2023-12-03T14:00:30.535Z,77.84
2023-12-03T14:03:33.249Z,77.68
2023-12-03T14:06:35.904Z,77.59
2023-12-03T14:09:39.872Z,77.65
2023-12-03T14:12:42.592Z,77.72
2023-12-03T14:15:45.571Z,77.55
2023-12-03T14:18:48.289Z,77.63
2023-12-03T14:21:51.055Z,77.96
2023-12-03T14:24:55.136Z,77.30
2023-12-03T14:27:57.842Z,77.34
2023-12-03T14:31:00.537Z,77.21
2023-12-03T14:34:03.278Z,77.50
2023-12-03T14:37:06.479Z,77.29
2023-12-03T14:40:14.777Z,77.33
2023-12-03T14:43:17.666Z,77.31
2023-12-03T14:46:20.365Z,76.67
2023-12-03T14:49:23.086Z,77.15
2023-12-03T14:52:26.180Z,76.76
2023-12-03T14:55:30.106Z,76.97
2023-12-03T14:58:32.865Z,77.22
2023-12-03T15:01:36.078Z,77.23
2023-12-03T15:04:42.448Z,77.59
2023-12-03T15:07:46.169Z,77.83
2023-12-03T15:10:50.223Z,77.60
2023-12-03T15:13:52.964Z,77.83
2023-12-03T15:16:55.721Z,77.64
2023-12-03T15:19:58.464Z,78.15
2023-12-03T15:23:01.530Z,77.95
2023-12-03T15:26:06.128Z,78.56
2023-12-03T15:29:08.781Z,78.04
2023-12-03T15:32:11.500Z,78.50
2023-12-03T15:35:14.304Z,78.61
2023-12-03T15:38:16.956Z,79.26
2023-12-03T15:41:21.590Z,78.67
2023-12-03T15:44:26.232Z,79.12
2023-12-03T15:47:29.733Z,79.33
2023-12-03T15:50:32.361Z,79.56
2023-12-03T15:53:35.918Z,79.46
2023-12-03T15:56:39.857Z,79.83
2023-12-03T15:59:42.619Z,79.95
2023-12-03T16:02:45.327Z,80.15
2023-12-03T16:05:48.058Z,80.13
2023-12-03T16:08:51.113Z,80.35
2023-12-03T16:11:57.006Z,80.20
2023-12-03T16:15:00.182Z,80.80
2023-12-03T16:18:03.077Z,80.23
2023-12-03T16:21:06.170Z,80.29
2023-12-03T16:24:09.194Z,80.77
2023-12-03T16:27:13.238Z,80.67
2023-12-03T16:30:17.262Z,80.60
2023-12-03T16:33:19.890Z,80.67
2023-12-03T16:36:22.666Z,80.66
2023-12-03T16:39:25.409Z,80.90
2023-12-03T16:42:30.682Z,80.87
2023-12-03T16:45:33.801Z,81.40
2023-12-03T16:48:36.595Z,81.66
2023-12-03T16:51:40.237Z,82.05
2023-12-03T16:54:44.253Z,82.32
2023-12-03T16:57:48.327Z,82.38
2023-12-03T17:00:51.237Z,82.87
2023-12-03T17:03:54.010Z,83.28
2023-12-03T17:06:56.789Z,83.15
2023-12-03T17:09:59.557Z,84.14
2023-12-03T17:13:04.307Z,84.53
2023-12-03T17:16:07.966Z,85.08
2023-12-03T17:19:10.778Z,85.17
2023-12-03T17:22:13.533Z,85.30
2023-12-03T17:25:16.354Z,86.04
2023-12-03T17:28:20.364Z,86.26
2023-12-03T17:31:22.951Z,87.10
2023-12-03T17:34:25.655Z,87.23
2023-12-03T17:37:28.344Z,88.06
2023-12-03T17:40:30.992Z,87.85
2023-12-03T17:43:35.764Z,88.79
2023-12-03T17:46:38.376Z,88.99
2023-12-03T17:49:41.058Z,89.19
2023-12-03T17:52:43.773Z,89.30
2023-12-03T17:55:46.491Z,89.44
2023-12-03T17:58:50.482Z,90.21
2023-12-03T18:01:53.233Z,89.73
2023-12-03T18:04:57.924Z,90.05
2023-12-03T18:08:00.540Z,90.72
2023-12-03T18:11:03.352Z,90.63
2023-12-03T18:14:07.439Z,90.55
2023-12-03T18:17:10.059Z,91.09
2023-12-03T18:20:14.176Z,91.44
2023-12-03T18:23:16.831Z,91.68
2023-12-03T18:26:19.772Z,91.30
2023-12-03T18:29:23.728Z,91.73
2023-12-03T18:32:29.482Z,91.62
2023-12-03T18:35:33.362Z,91.73
2023-12-03T18:38:36.082Z,91.80
2023-12-03T18:41:38.791Z,91.77
2023-12-03T18:44:42.792Z,92.56
2023-12-03T18:47:45.576Z,92.07
2023-12-03T18:50:51.005Z,92.37
2023-12-03T18:53:53.653Z,92.98
2023-12-03T18:56:56.331Z,92.35
2023-12-03T19:00:01.411Z,92.79
2023-12-03T19:03:04.454Z,92.52
2023-12-03T19:06:07.763Z,92.64
2023-12-03T19:09:10.374Z,93.03
2023-12-03T19:12:12.995Z,93.14
2023-12-03T19:15:17.220Z,93.12
2023-12-03T19:18:19.886Z,93.29
2023-12-03T19:21:22.605Z,93.35
2023-12-03T19:24:25.266Z,93.06
2023-12-03T19:27:27.920Z,93.32
2023-12-03T19:30:31.953Z,93.59
2023-12-03T19:33:34.714Z,93.27
2023-12-03T19:36:37.621Z,93.61
2023-12-03T19:39:40.364Z,93.20
2023-12-03T19:42:43.248Z,93.53
2023-12-03T19:45:47.314Z,93.40
2023-12-03T19:48:50.200Z,93.62
2023-12-03T19:51:52.949Z,93.51
2023-12-03T19:54:55.708Z,93.77
2023-12-03T19:57:58.373Z,94.06
2023-12-03T20:01:02.836Z,94.34
2023-12-03T20:04:05.789Z,94.13
2023-12-03T20:07:08.636Z,94.51
2023-12-03T20:10:11.482Z,93.99
2023-12-03T20:13:14.203Z,94.63
2023-12-03T20:16:18.257Z,94.38
2023-12-03T20:19:21.518Z,94.18
2023-12-03T20:22:24.280Z,94.29
2023-12-03T20:25:26.892Z,94.49
2023-12-03T20:28:29.971Z,94.73
2023-12-03T20:31:34.710Z,94.55
2023-12-03T20:34:37.385Z,94.62
2023-12-03T20:37:40.076Z,94.80
2023-12-03T20:40:43.180Z,94.88
2023-12-03T20:43:46.024Z,94.74
2023-12-03T20:46:49.979Z,94.87
2023-12-03T20:49:52.710Z,94.71
2023-12-03T20:52:55.388Z,94.96
2023-12-03T20:55:58.045Z,94.66
2023-12-03T20:59:00.691Z,94.58
2023-12-03T21:02:05.725Z,94.39
2023-12-03T21:05:08.989Z,94.53
2023-12-03T21:08:11.652Z,94.40
2023-12-03T21:11:19.618Z,94.68
2023-12-03T21:14:22.308Z,94.19
2023-12-03T21:17:26.344Z,94.02
2023-12-03T21:20:29.084Z,94.27
2023-12-03T21:23:31.683Z,93.89
2023-12-03T21:26:34.611Z,93.31
2023-12-03T21:29:37.271Z,93.90
2023-12-03T21:32:41.349Z,93.54
2023-12-03T21:35:44.876Z,93.96
2023-12-03T21:38:47.567Z,93.73
2023-12-03T21:41:51.391Z,93.26
2023-12-03T21:44:54.007Z,93.60
2023-12-03T21:51:00.592Z,93.07
2023-12-03T21:54:03.612Z,93.41
2023-12-03T21:57:06.309Z,92.92
2023-12-03T22:00:11.211Z,93.00
2023-12-03T22:03:15.267Z,92.81
2023-12-03T22:06:17.993Z,92.87
2023-12-03T22:09:20.775Z,92.92
2023-12-03T22:12:23.411Z,92.72
2023-12-03T22:15:26.016Z,93.00
2023-12-03T22:18:30.353Z,92.76
2023-12-03T22:21:33.198Z,92.47
2023-12-03T22:24:35.886Z,92.14
2023-12-03T22:27:38.566Z,92.25
2023-12-03T22:30:41.278Z,92.12
2023-12-03T22:33:45.323Z,91.93
2023-12-03T22:36:48.005Z,92.07
2023-12-03T22:39:50.690Z,92.34
2023-12-03T22:42:53.406Z,91.87
2023-12-03T22:45:56.148Z,92.33
2023-12-03T22:49:00.271Z,92.28
2023-12-03T22:52:03.042Z,92.08
2023-12-03T22:55:06.572Z,92.01
2023-12-03T22:58:09.313Z,91.89
2023-12-03T23:01:12.085Z,91.64
2023-12-03T23:04:16.359Z,92.09
2023-12-03T23:07:19.169Z,91.78
2023-12-03T23:10:21.842Z,91.61
2023-12-03T23:13:24.582Z,92.10
2023-12-03T23:16:27.880Z,91.53
2023-12-03T23:19:32.128Z,91.66
2023-12-03T23:22:34.866Z,91.80
2023-12-03T23:25:37.571Z,91.27
2023-12-03T23:28:40.235Z,91.50
2023-12-03T23:31:42.913Z,91.49
2023-12-03T23:34:46.964Z,91.23
2023-12-03T23:37:49.608Z,91.07
2023-12-03T23:40:52.313Z,90.94
2023-12-03T23:43:55.039Z,90.37
2023-12-03T23:46:57.689Z,90.96
2023-12-03T23:50:01.947Z,90.78
2023-12-03T23:53:04.599Z,90.32
2023-12-03T23:56:08.131Z,90.03
2023-12-03T23:59:10.755Z,89.69
